Time;durP1;ratioP1;P1;durP2;ratioP2;P2;SDS_P1;SDS_P2;PMS_P1;PMS_P2;Temp;Humidity;BMP_temperature;BMP_pressure;BME280_temperature;BME280_humidity;BME280_pressure;Samples;Min_cycle;Max_cycle;Signal;HPM_P1;HPM_P2
2022/07/15 00:00:15;;;;;;;4.57;2.10;;;18.60;99.70;;;;;;2087218;28;20024;-70
2022/07/15 00:01:15;;;;;;;6.25;1.98;;;18.60;99.10;;;;;;2084118;28;20083;-70
2022/07/15 00:02:16;;;;;;;3.03;1.88;;;18.60;99.50;;;;;;2086390;28;20055;-70
2022/07/15 00:03:17;;;;;;;5.50;2.40;;;18.60;98.90;;;;;;2084739;28;20433;-70
2022/07/15 00:04:17;;;;;;;5.97;2.28;;;18.60;99.40;;;;;;2086206;28;20480;-70
2022/07/15 00:05:18;;;;;;;5.97;2.35;;;18.60;98.80;;;;;;2084451;28;20634;-70
2022/07/15 00:06:19;;;;;;;6.43;2.58;;;18.60;99.60;;;;;;2084720;28;20017;-70
2022/07/15 00:07:20;;;;;;;7.53;2.50;;;18.60;99.90;;;;;;2085755;28;20060;-70
2022/07/15 00:08:20;;;;;;;3.15;1.88;;;18.60;99.90;;;;;;2088104;28;20060;-70
2022/07/15 00:10:13;;;;;;;6.65;2.05;;;18.60;99.40;;;;;;2084203;28;20022;-70
2022/07/15 00:10:41;;;;;;;5.07;1.90;;;18.60;99.10;;;;;;2083108;28;20485;-70
2022/07/15 00:11:42;;;;;;;2.72;1.98;;;18.50;99.20;;;;;;2083556;28;20382;-70
2022/07/15 00:12:57;;;;;;;5.28;2.03;;;18.60;99.40;;;;;;2087956;28;20025;-70
2022/07/15 00:13:59;;;;;;;4.35;2.20;;;18.60;99.90;;;;;;2084877;28;20096;-70
2022/07/15 00:15:00;;;;;;;7.10;2.33;;;18.50;99.90;;;;;;2087275;28;20033;-70
2022/07/15 00:16:00;;;;;;;7.30;1.92;;;18.60;99.90;;;;;;2083522;28;20067;-70
2022/07/15 00:17:01;;;;;;;4.95;2.53;;;18.60;99.50;;;;;;2084129;28;20037;-70
2022/07/15 00:18:03;;;;;;;6.47;2.15;;;18.50;99.90;;;;;;2084472;28;20018;-70
2022/07/15 00:19:04;;;;;;;6.63;2.22;;;18.60;99.90;;;;;;2083077;28;20018;-70
2022/07/15 00:20:05;;;;;;;6.90;2.20;;;18.60;99.90;;;;;;2086856;28;20108;-70
2022/07/15 00:21:06;;;;;;;6.53;2.25;;;18.60;99.90;;;;;;2088325;28;20075;-70
2022/07/15 00:22:07;;;;;;;4.68;1.73;;;18.50;99.90;;;;;;2085629;28;20032;-70
2022/07/15 00:23:08;;;;;;;5.47;2.40;;;18.60;99.90;;;;;;2087132;28;20025;-70
2022/07/15 00:24:08;;;;;;;4.15;1.92;;;18.60;99.90;;;;;;2087134;28;20017;-70
2022/07/15 00:25:10;;;;;;;4.88;1.85;;;18.60;99.90;;;;;;2086198;28;20055;-70
2022/07/15 00:26:11;;;;;;;6.43;2.47;;;18.60;99.90;;;;;;2084672;28;20061;-70
2022/07/15 00:27:11;;;;;;;4.85;2.25;;;18.60;99.90;;;;;;2082858;28;20036;-70
2022/07/15 00:28:12;;;;;;;7.03;1.83;;;18.60;99.90;;;;;;2088996;28;20056;-70
2022/07/15 00:29:13;;;;;;;8.63;2.20;;;18.60;99.90;;;;;;2085378;28;20017;-70
2022/07/15 00:30:13;;;;;;;4.05;2.17;;;18.60;99.90;;;;;;2085100;28;20025;-70
2022/07/15 00:31:14;;;;;;;4.97;2.08;;;18.50;99.90;;;;;;2083876;28;20172;-70
2022/07/15 00:32:15;;;;;;;4.47;2.00;;;18.50;99.90;;;;;;2084661;28;20107;-70
2022/07/15 00:33:16;;;;;;;4.25;2.22;;;18.60;99.90;;;;;;2083744;28;20108;-70
2022/07/15 00:34:16;;;;;;;8.25;2.20;;;18.50;99.90;;;;;;2085461;28;20033;-70
2022/07/15 00:35:17;;;;;;;8.20;2.30;;;18.50;99.90;;;;;;2084144;28;20045;-70
2022/07/15 00:36:18;;;;;;;5.65;1.80;;;18.50;99.90;;;;;;2084809;28;20037;-70
2022/07/15 00:37:18;;;;;;;6.82;2.38;;;18.50;99.90;;;;;;2085864;28;20107;-70
2022/07/15 00:38:19;;;;;;;5.45;1.95;;;18.50;99.90;;;;;;2085843;28;20100;-70
2022/07/15 00:39:20;;;;;;;7.57;3.00;;;18.50;99.90;;;;;;2086949;28;20048;-70
2022/07/15 00:40:21;;;;;;;10.85;2.90;;;18.50;99.90;;;;;;2083471;28;20030;-70
2022/07/15 00:41:21;;;;;;;8.77;2.58;;;18.50;99.90;;;;;;2085839;28;20074;-70
2022/07/15 00:43:41;;;;;;;7.75;2.75;;;18.50;99.90;;;;;;2086001;28;21871;-70
2022/07/15 00:44:42;;;;;;;5.22;2.05;;;18.40;99.90;;;;;;2085593;28;20020;-70
2022/07/15 00:45:42;;;;;;;5.45;2.53;;;18.40;99.90;;;;;;2085752;28;20095;-70
2022/07/15 00:46:43;;;;;;;5.80;2.22;;;18.40;99.90;;;;;;2083710;28;20567;-70
2022/07/15 00:47:46;;;;;;;5.65;2.33;;;18.40;99.90;;;;;;2086945;28;20020;-70
2022/07/15 00:48:46;;;;;;;7.30;3.17;;;18.40;99.90;;;;;;2084679;28;20033;-70
2022/07/15 00:49:47;;;;;;;6.45;2.33;;;18.50;99.90;;;;;;2084459;28;20044;-70
2022/07/15 00:50:48;;;;;;;7.82;2.58;;;18.40;99.90;;;;;;2086056;28;20098;-70
2022/07/15 00:51:55;;;;;;;3.33;2.03;;;18.50;99.90;;;;;;2085201;28;20021;-70
2022/07/15 00:53:05;;;;;;;4.40;2.20;;;18.50;99.90;;;;;;2090816;28;20457;-70
2022/07/15 00:54:09;;;;;;;5.68;2.35;;;18.50;99.90;;;;;;2090635;28;20008;-70
2022/07/15 00:55:11;;;;;;;7.95;2.70;;;18.40;99.90;;;;;;2084335;28;20056;-70
2022/07/15 00:56:16;;;;;;;7.07;2.80;;;18.50;99.90;;;;;;2085451;28;20452;-70
2022/07/15 00:57:19;;;;;;;8.13;2.67;;;18.50;99.90;;;;;;2083702;28;20136;-70
2022/07/15 00:58:24;;;;;;;5.20;2.20;;;18.40;99.90;;;;;;2084490;28;20564;-70
2022/07/15 00:59:31;;;;;;;7.25;2.45;;;18.40;99.90;;;;;;2083436;28;20465;-70
2022/07/15 01:00:32;;;;;;;5.80;2.85;;;18.40;99.90;;;;;;2084940;28;20029;-70
2022/07/15 01:01:35;;;;;;;6.65;2.80;;;18.40;99.90;;;;;;2084867;28;20036;-70
2022/07/15 01:02:36;;;;;;;8.60;2.92;;;18.40;99.90;;;;;;2086561;28;20025;-70
2022/07/15 01:03:37;;;;;;;7.07;2.72;;;18.40;99.90;;;;;;2083461;28;20027;-70
2022/07/15 01:04:39;;;;;;;8.13;2.53;;;18.30;99.90;;;;;;2083701;28;20032;-70
2022/07/15 01:05:41;;;;;;;4.88;2.20;;;18.30;99.90;;;;;;2084701;28;20028;-70
2022/07/15 01:06:42;;;;;;;5.35;2.10;;;18.30;99.90;;;;;;2086579;28;20024;-70
2022/07/15 01:07:43;;;;;;;8.23;2.63;;;18.30;99.90;;;;;;2085315;28;20107;-70
2022/07/15 01:08:44;;;;;;;7.57;2.83;;;18.30;99.90;;;;;;2083423;28;20016;-70
2022/07/15 01:09:44;;;;;;;8.70;2.95;;;18.30;99.90;;;;;;2085855;28;20025;-70
2022/07/15 01:10:50;;;;;;;5.47;2.20;;;18.30;99.90;;;;;;2082966;28;20095;-70
2022/07/15 01:11:50;;;;;;;7.93;2.80;;;18.30;99.90;;;;;;2084857;28;20409;-70
2022/07/15 01:12:52;;;;;;;7.30;2.47;;;18.30;99.90;;;;;;2081360;28;20029;-70
2022/07/15 01:13:54;;;;;;;8.98;2.33;;;18.30;99.90;;;;;;2086334;28;20067;-70
2022/07/15 01:14:55;;;;;;;6.35;2.47;;;18.20;99.90;;;;;;2088092;28;20017;-70
2022/07/15 01:15:56;;;;;;;7.28;2.40;;;18.30;99.90;;;;;;2084278;28;20060;-70
2022/07/15 01:16:57;;;;;;;7.68;2.75;;;18.20;99.90;;;;;;2085504;28;20040;-70
2022/07/15 01:17:59;;;;;;;4.45;2.38;;;18.20;99.90;;;;;;2089414;28;20055;-70
2022/07/15 01:19:00;;;;;;;8.05;3.05;;;18.20;99.90;;;;;;2084801;28;20079;-70
2022/07/15 01:20:01;;;;;;;8.23;2.70;;;18.20;99.90;;;;;;2082066;28;20025;-70
2022/07/15 01:21:02;;;;;;;7.28;2.78;;;18.30;99.90;;;;;;2083618;28;20029;-70
2022/07/15 01:22:03;;;;;;;5.30;2.58;;;18.20;99.90;;;;;;2083657;28;20017;-70
2022/07/15 01:23:04;;;;;;;6.97;2.85;;;18.20;99.90;;;;;;2083867;28;20021;-70
2022/07/15 01:24:05;;;;;;;7.50;2.47;;;18.20;99.90;;;;;;2083861;28;20025;-70
2022/07/15 01:25:06;;;;;;;5.90;2.67;;;18.20;99.90;;;;;;2085038;28;20124;-70
2022/07/15 01:26:07;;;;;;;7.65;2.63;;;18.20;99.90;;;;;;2082718;28;20029;-70
2022/07/15 01:27:08;;;;;;;8.98;2.53;;;18.20;99.90;;;;;;2083258;28;20434;-70
2022/07/15 01:28:09;;;;;;;7.90;2.47;;;18.20;99.90;;;;;;2084679;28;20036;-70
2022/07/15 01:29:09;;;;;;;6.85;1.92;;;18.20;99.90;;;;;;2083913;28;20040;-70
2022/07/15 01:30:11;;;;;;;8.38;2.65;;;18.20;99.90;;;;;;2082788;28;20136;-70
2022/07/15 01:31:12;;;;;;;9.00;2.97;;;18.20;99.90;;;;;;2084186;28;20067;-70
2022/07/15 01:32:12;;;;;;;7.72;2.97;;;18.20;99.90;;;;;;2083213;28;20032;-70
2022/07/15 01:33:14;;;;;;;10.60;2.92;;;18.20;99.90;;;;;;2083019;28;20026;-70
2022/07/15 01:34:15;;;;;;;5.50;2.30;;;18.20;99.90;;;;;;2077141;28;20025;-70
2022/07/15 01:35:15;;;;;;;7.50;2.80;;;18.20;99.90;;;;;;2081742;28;20052;-70
2022/07/15 01:36:16;;;;;;;12.07;3.15;;;18.20;99.90;;;;;;2081756;28;20029;-70
2022/07/15 01:37:17;;;;;;;9.15;2.65;;;18.10;99.90;;;;;;2084280;28;20036;-70
2022/07/15 01:38:18;;;;;;;9.38;2.83;;;18.10;99.90;;;;;;2083531;28;20032;-70
2022/07/15 01:39:19;;;;;;;7.05;2.53;;;18.10;99.90;;;;;;2081752;28;20022;-70
2022/07/15 01:40:19;;;;;;;7.78;2.75;;;18.10;99.90;;;;;;2083826;28;20043;-70
2022/07/15 01:41:22;;;;;;;6.07;2.00;;;18.10;99.90;;;;;;2084587;28;20037;-70
2022/07/15 01:42:22;;;;;;;5.68;2.38;;;18.10;99.90;;;;;;2082611;28;20026;-70
2022/07/15 01:43:23;;;;;;;10.60;2.85;;;18.10;99.90;;;;;;2086344;28;20048;-70
2022/07/15 01:44:24;;;;;;;7.72;2.75;;;18.10;99.90;;;;;;2085106;28;20071;-70
2022/07/15 01:45:25;;;;;;;10.52;2.55;;;18.00;99.90;;;;;;2083474;28;20049;-70
2022/07/15 01:46:25;;;;;;;7.20;2.58;;;18.00;99.90;;;;;;2085040;28;20016;-70
2022/07/15 01:47:26;;;;;;;7.30;2.10;;;18.00;99.90;;;;;;2086262;28;20028;-70
2022/07/15 01:49:53;;;;;;;7.35;2.53;;;17.90;99.90;;;;;;2088180;28;20031;-70
2022/07/15 01:50:56;;;;;;;8.13;2.63;;;17.90;99.90;;;;;;2082974;28;20087;-70
2022/07/15 01:51:57;;;;;;;7.50;2.33;;;17.90;99.90;;;;;;2085104;28;20041;-70
2022/07/15 01:52:57;;;;;;;7.28;2.53;;;17.90;99.90;;;;;;2081945;28;20029;-70
2022/07/15 01:53:58;;;;;;;7.80;2.70;;;17.90;99.90;;;;;;2089281;28;20024;-70
2022/07/15 01:54:59;;;;;;;6.35;2.17;;;17.90;99.90;;;;;;2085067;28;20487;-70
2022/07/15 01:55:59;;;;;;;6.93;2.10;;;17.90;99.90;;;;;;2084390;28;20469;-70
2022/07/15 01:57:00;;;;;;;7.53;2.72;;;17.90;99.90;;;;;;2083469;28;20434;-70
2022/07/15 01:58:01;;;;;;;9.38;2.60;;;17.90;99.90;;;;;;2084317;28;20028;-70
2022/07/15 01:59:01;;;;;;;7.78;3.03;;;17.90;99.90;;;;;;2084256;28;20726;-70
2022/07/15 02:00:04;;;;;;;4.50;2.42;;;17.90;99.90;;;;;;2085649;28;20029;-70
2022/07/15 02:01:05;;;;;;;6.13;2.20;;;17.90;99.90;;;;;;2083751;28;20424;-70
2022/07/15 02:02:06;;;;;;;4.93;2.05;;;17.90;99.90;;;;;;2086618;28;20457;-70
2022/07/15 02:03:07;;;;;;;4.38;2.22;;;17.90;99.90;;;;;;2085253;28;20159;-70
2022/07/15 02:04:08;;;;;;;7.57;2.50;;;17.90;99.90;;;;;;2086271;28;20017;-70
2022/07/15 02:05:09;;;;;;;4.25;2.20;;;17.90;99.90;;;;;;2084408;28;20093;-70
2022/07/15 02:06:10;;;;;;;7.00;2.33;;;17.90;99.90;;;;;;2083679;28;20033;-70
2022/07/15 02:07:11;;;;;;;5.97;2.60;;;17.90;99.90;;;;;;2082507;28;20025;-70
2022/07/15 02:08:11;;;;;;;7.88;2.47;;;17.90;99.90;;;;;;2083621;28;20025;-70
2022/07/15 02:09:12;;;;;;;5.60;2.28;;;17.90;99.90;;;;;;2084202;28;20024;-70
2022/07/15 02:10:12;;;;;;;5.88;2.05;;;17.90;99.90;;;;;;2084635;28;20106;-70
2022/07/15 02:11:13;;;;;;;5.45;2.20;;;17.90;99.90;;;;;;2084557;28;20104;-70
2022/07/15 02:12:14;;;;;;;9.02;2.75;;;17.90;99.90;;;;;;2082798;28;20079;-70
2022/07/15 02:13:15;;;;;;;8.65;2.95;;;17.80;99.90;;;;;;2085521;28;20040;-70
2022/07/15 02:14:16;;;;;;;9.70;2.80;;;17.80;99.90;;;;;;2086323;28;20136;-70
2022/07/15 02:15:16;;;;;;;5.32;2.08;;;17.80;99.90;;;;;;2086892;28;20024;-70
2022/07/15 02:16:17;;;;;;;9.85;3.00;;;17.80;99.90;;;;;;2086652;28;20032;-70
2022/07/15 02:17:18;;;;;;;7.20;2.25;;;17.70;99.90;;;;;;2083174;28;20021;-70
2022/07/15 02:18:18;;;;;;;8.30;2.88;;;17.70;99.90;;;;;;2085875;28;20040;-70
2022/07/15 02:19:19;;;;;;;8.95;2.97;;;17.70;99.90;;;;;;2085697;28;20374;-70
2022/07/15 02:20:19;;;;;;;6.22;2.20;;;17.70;99.90;;;;;;2091151;28;20054;-70
2022/07/15 02:21:20;;;;;;;7.65;2.63;;;17.60;99.90;;;;;;2082875;28;20132;-70
2022/07/15 02:22:21;;;;;;;7.57;2.85;;;17.70;99.90;;;;;;2084488;28;20400;-70
2022/07/15 02:23:23;;;;;;;9.00;2.65;;;17.70;99.90;;;;;;2084645;28;20029;-70
2022/07/15 02:24:24;;;;;;;7.10;2.30;;;17.70;99.90;;;;;;2082325;28;20184;-70
2022/07/15 02:25:34;;;;;;;5.75;2.47;;;17.60;99.90;;;;;;2085307;28;20107;-70
2022/07/15 02:26:35;;;;;;;5.40;2.33;;;17.60;99.90;;;;;;2085746;28;20033;-70
2022/07/15 02:27:36;;;;;;;5.88;2.47;;;17.60;99.90;;;;;;2083464;28;20032;-70
2022/07/15 02:28:36;;;;;;;6.82;2.53;;;17.60;99.90;;;;;;2084400;28;20040;-70
2022/07/15 02:29:38;;;;;;;5.28;2.85;;;17.60;99.90;;;;;;2087054;28;20017;-70
2022/07/15 02:30:40;;;;;;;4.95;2.10;;;17.60;99.90;;;;;;2084743;28;20546;-70
2022/07/15 02:31:41;;;;;;;6.00;2.50;;;17.60;99.90;;;;;;2081511;28;20025;-70
2022/07/15 02:32:42;;;;;;;11.30;3.35;;;17.60;99.90;;;;;;2085255;28;20032;-70
2022/07/15 02:33:43;;;;;;;8.93;2.45;;;17.60;99.90;;;;;;2085168;28;20028;-70
2022/07/15 02:34:43;;;;;;;5.75;2.25;;;17.60;99.90;;;;;;2086543;28;20029;-70
2022/07/15 02:35:44;;;;;;;6.53;2.50;;;17.50;99.90;;;;;;2085898;28;20422;-70
2022/07/15 02:36:44;;;;;;;4.78;2.40;;;17.50;99.90;;;;;;2085525;28;20454;-70
2022/07/15 02:37:46;;;;;;;7.72;2.53;;;17.50;99.90;;;;;;2085400;28;20582;-70
2022/07/15 02:38:46;;;;;;;6.68;2.80;;;17.50;99.90;;;;;;2084699;28;20036;-70
2022/07/15 02:39:47;;;;;;;5.65;2.30;;;17.50;99.90;;;;;;2083463;28;20028;-70
2022/07/15 02:40:48;;;;;;;7.43;2.70;;;17.50;99.90;;;;;;2086504;28;20013;-70
2022/07/15 02:41:49;;;;;;;7.18;2.80;;;17.50;99.90;;;;;;2085105;28;20021;-70
2022/07/15 02:42:52;;;;;;;5.07;2.60;;;17.40;99.90;;;;;;2086173;28;20707;-70
2022/07/15 02:43:53;;;;;;;6.78;2.13;;;17.40;99.90;;;;;;2084139;28;20378;-70
2022/07/15 02:44:54;;;;;;;8.95;3.08;;;17.40;99.90;;;;;;2086574;28;20063;-70
2022/07/15 02:45:55;;;;;;;6.25;2.42;;;17.40;99.90;;;;;;2085436;28;20499;-70
2022/07/15 02:46:56;;;;;;;7.97;2.78;;;17.40;99.90;;;;;;2084976;28;20492;-69
2022/07/15 02:47:56;;;;;;;5.57;2.47;;;17.40;99.90;;;;;;2084910;28;20505;-69
2022/07/15 02:48:57;;;;;;;7.13;2.78;;;17.40;99.90;;;;;;2085050;28;20492;-69
2022/07/15 02:49:57;;;;;;;7.20;2.42;;;17.30;99.90;;;;;;2088652;28;20025;-69
2022/07/15 02:50:58;;;;;;;5.57;2.15;;;17.30;99.90;;;;;;2086234;28;20028;-69
2022/07/15 02:51:59;;;;;;;6.43;2.03;;;17.30;99.90;;;;;;2083260;28;20013;-69
2022/07/15 02:53:00;;;;;;;7.88;2.55;;;17.20;99.90;;;;;;2086413;28;20036;-70
2022/07/15 02:54:01;;;;;;;8.40;2.85;;;17.30;99.90;;;;;;2088417;28;20021;-70
2022/07/15 02:55:02;;;;;;;6.88;2.60;;;17.20;99.90;;;;;;2084085;28;20027;-69
2022/07/15 02:56:03;;;;;;;7.10;2.88;;;17.20;99.90;;;;;;2084464;28;20021;-69
2022/07/15 02:57:04;;;;;;;4.60;2.10;;;17.20;99.90;;;;;;2085290;28;20076;-70
2022/07/15 02:58:06;;;;;;;7.75;2.30;;;17.20;99.90;;;;;;2084976;28;20020;-70
2022/07/15 02:59:06;;;;;;;5.53;2.50;;;17.20;99.90;;;;;;2084532;28;20528;-70
2022/07/15 03:00:11;;;;;;;6.20;2.60;;;17.10;99.90;;;;;;2086304;28;20029;-70
2022/07/15 03:01:12;;;;;;;6.03;2.58;;;17.10;99.90;;;;;;2087317;28;20064;-70
2022/07/15 03:02:12;;;;;;;6.43;2.75;;;17.10;99.90;;;;;;2088112;28;20024;-70
2022/07/15 03:03:13;;;;;;;7.95;2.40;;;17.10;99.90;;;;;;2082885;28;20052;-70
2022/07/15 03:04:13;;;;;;;5.82;2.35;;;17.00;99.90;;;;;;2085991;28;20106;-70
2022/07/15 03:05:15;;;;;;;9.95;2.70;;;17.00;99.90;;;;;;2087694;28;20021;-69
2022/07/15 03:06:17;;;;;;;5.85;2.42;;;17.00;99.90;;;;;;2086533;28;20392;-69
2022/07/15 03:07:18;;;;;;;5.07;2.20;;;17.00;99.90;;;;;;2086521;28;20024;-69
2022/07/15 03:08:18;;;;;;;4.57;2.40;;;17.00;99.90;;;;;;2088815;28;20017;-70
2022/07/15 03:09:19;;;;;;;6.25;2.53;;;16.90;99.90;;;;;;2085220;28;20021;-70
2022/07/15 03:10:20;;;;;;;7.93;2.83;;;16.90;99.90;;;;;;2085380;28;20026;-70
2022/07/15 03:11:21;;;;;;;11.02;2.97;;;16.90;99.90;;;;;;2085177;28;20028;-70
2022/07/15 03:12:22;;;;;;;6.47;2.45;;;16.80;99.90;;;;;;2086994;28;20029;-70
2022/07/15 03:13:24;;;;;;;7.70;2.75;;;16.80;99.90;;;;;;2088278;28;20051;-70
2022/07/15 03:14:25;;;;;;;7.00;2.70;;;16.80;99.90;;;;;;2085324;28;20040;-70
2022/07/15 03:15:26;;;;;;;8.27;2.50;;;16.80;99.90;;;;;;2083527;28;20013;-70
2022/07/15 03:16:27;;;;;;;5.38;2.40;;;16.70;99.90;;;;;;2086663;28;20021;-70
2022/07/15 03:17:28;;;;;;;7.78;2.75;;;16.70;99.90;;;;;;2085831;28;20020;-70
2022/07/15 03:18:29;;;;;;;6.45;2.70;;;16.70;99.90;;;;;;2083814;28;20171;-69
2022/07/15 03:19:29;;;;;;;5.20;2.30;;;16.70;99.90;;;;;;2085695;28;20025;-70
2022/07/15 03:20:30;;;;;;;7.00;2.45;;;16.60;99.90;;;;;;2086376;28;20036;-70
2022/07/15 03:21:30;;;;;;;7.78;2.70;;;16.60;99.90;;;;;;2084244;28;20076;-70
2022/07/15 03:22:31;;;;;;;7.97;2.65;;;16.60;99.90;;;;;;2084141;28;20037;-70
2022/07/15 03:23:32;;;;;;;6.53;2.58;;;16.60;99.90;;;;;;2084769;28;20389;-70
2022/07/15 03:24:32;;;;;;;7.90;2.80;;;16.60;99.90;;;;;;2087290;28;20029;-70
2022/07/15 03:25:33;;;;;;;8.73;3.00;;;16.50;99.90;;;;;;2085139;28;20064;-70
2022/07/15 03:26:34;;;;;;;8.43;3.08;;;16.50;99.90;;;;;;2084945;28;20024;-70
2022/07/15 03:27:35;;;;;;;8.75;3.25;;;16.50;99.90;;;;;;2086774;28;20471;-70
2022/07/15 03:28:35;;;;;;;6.47;2.83;;;16.50;99.90;;;;;;2086218;28;20044;-70
2022/07/15 03:29:36;;;;;;;6.40;2.58;;;16.50;99.90;;;;;;2086598;28;20033;-70
2022/07/15 03:30:36;;;;;;;4.60;2.17;;;16.40;99.90;;;;;;2083965;28;20105;-70
2022/07/15 03:31:37;;;;;;;4.85;2.65;;;16.40;99.90;;;;;;2084192;28;20025;-70
2022/07/15 03:32:38;;;;;;;6.63;2.42;;;16.40;99.90;;;;;;2084557;28;20036;-69
2022/07/15 03:33:38;;;;;;;7.80;2.88;;;16.40;99.90;;;;;;2084910;28;20029;-70
2022/07/15 03:34:39;;;;;;;11.13;3.35;;;16.40;99.90;;;;;;2086384;28;20031;-69
2022/07/15 03:35:41;;;;;;;6.93;2.78;;;16.30;99.90;;;;;;2085452;28;20113;-69
2022/07/15 03:36:42;;;;;;;4.80;2.40;;;16.30;99.90;;;;;;2084082;28;20052;-69
2022/07/15 03:37:43;;;;;;;7.50;3.08;;;16.30;99.90;;;;;;2084043;28;20049;-69
2022/07/15 03:38:43;;;;;;;7.80;2.40;;;16.30;99.90;;;;;;2088313;28;20032;-69
2022/07/15 03:39:44;;;;;;;9.23;2.83;;;16.30;99.90;;;;;;2088362;28;20024;-69
2022/07/15 03:40:45;;;;;;;9.50;3.15;;;16.30;99.90;;;;;;2083843;28;20020;-69
2022/07/15 03:41:46;;;;;;;7.80;2.80;;;16.30;99.90;;;;;;2085260;28;20031;-69
2022/07/15 03:42:47;;;;;;;8.18;2.80;;;16.30;99.90;;;;;;2084964;28;20037;-69
2022/07/15 03:43:48;;;;;;;7.22;2.63;;;16.20;99.90;;;;;;2088255;28;20052;-69
2022/07/15 03:44:48;;;;;;;6.00;2.55;;;16.20;99.90;;;;;;2085259;28;20438;-69
2022/07/15 03:45:49;;;;;;;8.52;2.67;;;16.20;99.90;;;;;;2087256;28;20027;-69
2022/07/15 03:46:49;;;;;;;8.20;3.35;;;16.20;99.90;;;;;;2085397;28;20159;-69
2022/07/15 03:47:50;;;;;;;8.32;2.58;;;16.20;99.90;;;;;;2083498;28;20036;-69
2022/07/15 03:48:51;;;;;;;7.82;3.20;;;16.20;99.90;;;;;;2084409;28;20021;-69
2022/07/15 03:49:51;;;;;;;9.25;3.20;;;16.20;99.90;;;;;;2086982;28;20025;-70
2022/07/15 03:50:52;;;;;;;4.90;2.92;;;16.10;99.90;;;;;;2085745;28;20106;-70
2022/07/15 03:51:52;;;;;;;7.68;2.92;;;16.10;99.90;;;;;;2085011;28;20049;-70
2022/07/15 03:52:53;;;;;;;5.97;2.85;;;16.10;99.90;;;;;;2085978;28;20028;-70
2022/07/15 03:53:54;;;;;;;7.57;2.88;;;16.10;99.90;;;;;;2087344;28;20025;-70
2022/07/15 03:54:54;;;;;;;5.70;2.80;;;16.10;99.90;;;;;;2088335;28;20103;-70
2022/07/15 03:55:55;;;;;;;5.82;2.67;;;16.10;99.90;;;;;;2086355;28;20479;-69
2022/07/15 03:56:56;;;;;;;6.43;2.60;;;16.10;99.90;;;;;;2085888;28;20018;-70
2022/07/15 03:57:56;;;;;;;7.68;2.72;;;16.10;99.90;;;;;;2084271;28;20024;-70
2022/07/15 03:58:57;;;;;;;5.47;2.67;;;16.10;99.90;;;;;;2081528;28;20049;-70
2022/07/15 03:59:58;;;;;;;8.52;2.65;;;16.10;99.90;;;;;;2083613;28;20396;-70
2022/07/15 04:00:58;;;;;;;4.38;2.58;;;16.10;99.90;;;;;;2087033;28;20036;-70
2022/07/15 04:01:59;;;;;;;5.00;2.00;;;16.10;99.90;;;;;;2085960;28;20021;-70
2022/07/15 04:02:59;;;;;;;6.70;2.67;;;16.00;99.90;;;;;;2085919;28;20013;-70
2022/07/15 04:04:00;;;;;;;6.18;2.50;;;16.00;99.90;;;;;;2085200;28;20021;-70
2022/07/15 04:05:01;;;;;;;6.35;2.28;;;16.00;99.90;;;;;;2084870;28;20109;-70
2022/07/15 04:06:01;;;;;;;5.72;2.75;;;16.00;99.90;;;;;;2086483;28;20094;-70
2022/07/15 04:07:02;;;;;;;4.72;2.83;;;16.00;99.90;;;;;;2087844;28;20112;-70
2022/07/15 04:08:03;;;;;;;4.38;2.17;;;16.00;99.90;;;;;;2088643;28;20494;-70
2022/07/15 04:09:03;;;;;;;7.25;2.70;;;16.10;99.90;;;;;;2087524;28;20017;-70
2022/07/15 04:10:05;;;;;;;7.55;2.50;;;16.00;99.90;;;;;;2085874;28;20024;-70
2022/07/15 04:11:05;;;;;;;5.00;2.67;;;16.10;99.90;;;;;;2088450;28;20079;-70
2022/07/15 04:12:06;;;;;;;6.40;2.65;;;16.10;99.90;;;;;;2085189;28;20079;-70
2022/07/15 04:13:07;;;;;;;8.88;2.83;;;16.20;99.90;;;;;;2083658;28;20421;-70
2022/07/15 04:14:11;;;;;;;3.90;2.40;;;16.20;99.90;;;;;;2084820;28;20094;-70
2022/07/15 04:15:14;;;;;;;4.72;2.33;;;16.30;99.90;;;;;;2082818;28;20033;-70
2022/07/15 04:16:14;;;;;;;7.78;3.28;;;16.40;99.90;;;;;;2088436;28;20387;-70
2022/07/15 04:17:15;;;;;;;5.15;2.80;;;16.40;99.90;;;;;;2083936;28;20053;-70
2022/07/15 04:18:15;;;;;;;8.20;2.60;;;16.40;99.90;;;;;;2083039;28;20029;-70
2022/07/15 04:19:16;;;;;;;6.43;2.60;;;16.40;99.90;;;;;;2084355;28;20041;-70
2022/07/15 04:20:17;;;;;;;6.35;2.40;;;16.50;99.90;;;;;;2083566;28;20496;-70
2022/07/15 04:21:18;;;;;;;7.55;2.45;;;16.40;99.90;;;;;;2086029;28;20029;-70
2022/07/15 04:22:18;;;;;;;4.40;2.05;;;16.40;99.90;;;;;;2085034;28;20123;-70
2022/07/15 04:23:19;;;;;;;5.00;2.67;;;16.40;99.90;;;;;;2085764;28;20089;-70
2022/07/15 04:24:20;;;;;;;5.78;2.90;;;16.40;99.90;;;;;;2084224;28;20100;-70
2022/07/15 04:25:22;;;;;;;9.32;2.70;;;16.40;99.90;;;;;;2081843;28;20517;-70
2022/07/15 04:26:22;;;;;;;7.07;3.22;;;16.40;99.90;;;;;;2084444;28;20904;-70
2022/07/15 04:27:24;;;;;;;8.40;3.15;;;16.40;99.90;;;;;;2084341;28;20385;-70
2022/07/15 04:28:25;;;;;;;7.97;2.85;;;16.40;99.90;;;;;;2084729;28;20021;-69
2022/07/15 04:29:26;;;;;;;4.57;2.28;;;16.50;99.90;;;;;;2083492;28;20543;-69
2022/07/15 04:30:27;;;;;;;4.75;2.60;;;16.50;99.90;;;;;;2083155;28;20570;-70
2022/07/15 04:31:27;;;;;;;4.88;2.38;;;16.70;99.90;;;;;;2084944;28;20527;-70
2022/07/15 04:32:28;;;;;;;6.00;2.47;;;17.00;99.90;;;;;;2085772;28;20431;-70
2022/07/15 04:33:28;;;;;;;4.88;2.50;;;17.20;99.90;;;;;;2084235;28;20028;-70
2022/07/15 04:34:29;;;;;;;4.22;2.60;;;17.40;99.90;;;;;;2082631;28;20109;-70
2022/07/15 04:35:30;;;;;;;5.85;2.55;;;17.70;99.90;;;;;;2083773;28;20052;-70
2022/07/15 04:36:30;;;;;;;4.88;2.63;;;17.90;99.90;;;;;;2083204;28;20024;-70
2022/07/15 04:37:31;;;;;;;5.72;2.65;;;18.10;99.90;;;;;;2084938;28;20561;-69
2022/07/15 04:38:31;;;;;;;7.40;3.15;;;18.10;99.90;;;;;;2082271;28;20487;-69
2022/07/15 04:39:32;;;;;;;7.20;2.90;;;18.10;99.90;;;;;;2084428;28;20122;-69
2022/07/15 04:40:33;;;;;;;7.57;2.70;;;18.20;99.90;;;;;;2084358;28;20071;-69
2022/07/15 04:41:33;;;;;;;8.15;2.45;;;18.10;99.90;;;;;;2085247;28;20505;-69
2022/07/15 04:42:34;;;;;;;8.90;2.40;;;18.10;99.90;;;;;;2083493;28;20017;-70
2022/07/15 04:43:35;;;;;;;4.35;2.08;;;18.10;99.90;;;;;;2081149;28;20049;-70
2022/07/15 04:44:35;;;;;;;9.02;2.85;;;18.10;99.90;;;;;;2084386;28;20094;-69
2022/07/15 04:45:36;;;;;;;5.93;2.45;;;18.10;99.90;;;;;;2083394;28;20027;-69
2022/07/15 04:46:36;;;;;;;6.25;2.70;;;18.10;99.90;;;;;;2082285;28;20048;-70
2022/07/15 04:47:37;;;;;;;9.43;2.83;;;18.10;99.90;;;;;;2082826;28;20025;-70
2022/07/15 04:51:16;;;;;;;7.32;2.30;;;18.20;99.90;;;;;;2083383;28;20025;-69
2022/07/15 04:52:17;;;;;;;7.00;2.30;;;18.20;99.90;;;;;;2081952;28;20543;-69
2022/07/15 04:53:19;;;;;;;11.02;2.90;;;18.30;99.90;;;;;;2084853;28;20611;-69
2022/07/15 04:54:20;;;;;;;6.00;2.60;;;18.30;99.90;;;;;;2084598;28;20053;-69
2022/07/15 04:55:21;;;;;;;9.52;3.42;;;18.40;99.90;;;;;;2085053;28;20032;-69
2022/07/15 04:56:21;;;;;;;6.82;2.63;;;18.40;99.90;;;;;;2082232;28;20021;-69
2022/07/15 04:57:22;;;;;;;11.95;3.17;;;18.50;99.90;;;;;;2083897;28;20073;-69
2022/07/15 04:58:23;;;;;;;5.65;2.63;;;18.60;99.90;;;;;;2082833;28;20465;-69
2022/07/15 04:59:23;;;;;;;8.18;2.97;;;18.60;99.90;;;;;;2086293;28;20638;-69
2022/07/15 05:00:24;;;;;;;6.95;2.72;;;18.70;99.90;;;;;;2082400;28;20034;-69
2022/07/15 05:01:25;;;;;;;7.15;2.63;;;18.80;99.90;;;;;;2081992;28;20036;-69
2022/07/15 05:02:25;;;;;;;7.78;2.70;;;18.90;99.90;;;;;;2083721;28;20033;-69
2022/07/15 05:03:26;;;;;;;9.07;3.17;;;18.90;99.90;;;;;;2085219;28;20024;-69
2022/07/15 05:04:27;;;;;;;6.65;2.58;;;19.00;99.90;;;;;;2083230;28;20112;-69
2022/07/15 05:05:27;;;;;;;9.63;2.55;;;19.10;99.90;;;;;;2082524;28;20024;-69
2022/07/15 05:06:28;;;;;;;7.15;2.80;;;19.10;99.90;;;;;;2083557;28;20485;-69
2022/07/15 05:07:28;;;;;;;10.65;2.97;;;19.20;99.90;;;;;;2085153;28;20020;-69
2022/07/15 05:08:29;;;;;;;9.07;2.50;;;19.30;99.90;;;;;;2083272;28;20087;-69
2022/07/15 05:09:30;;;;;;;8.52;2.95;;;19.40;99.90;;;;;;2081990;28;20017;-69
2022/07/15 05:10:31;;;;;;;10.52;2.92;;;19.50;99.90;;;;;;2084096;28;20784;-69
2022/07/15 05:11:31;;;;;;;7.53;2.80;;;19.60;99.90;;;;;;2084327;28;20029;-69
2022/07/15 05:12:32;;;;;;;9.65;3.03;;;19.70;99.90;;;;;;2081356;28;20407;-69
2022/07/15 05:13:35;;;;;;;7.90;2.83;;;19.80;99.90;;;;;;2083731;28;20454;-69
2022/07/15 05:14:38;;;;;;;9.52;3.00;;;19.80;99.90;;;;;;2084958;28;20030;-69
2022/07/15 05:15:39;;;;;;;8.98;2.75;;;19.90;99.90;;;;;;2084221;28;20117;-69
2022/07/15 05:16:39;;;;;;;8.75;2.90;;;20.00;99.90;;;;;;2085794;28;20028;-69
2022/07/15 05:17:41;;;;;;;6.25;2.70;;;20.10;99.90;;;;;;2085241;28;20021;-69
2022/07/15 05:18:41;;;;;;;8.63;2.72;;;20.20;99.90;;;;;;2086250;28;20066;-69
2022/07/15 05:19:42;;;;;;;10.60;3.53;;;20.20;99.90;;;;;;2085805;28;20051;-69
2022/07/15 05:20:42;;;;;;;9.35;2.90;;;20.30;99.40;;;;;;2082372;28;21064;-69
2022/07/15 05:21:43;;;;;;;8.63;2.90;;;20.30;99.70;;;;;;2081419;28;20021;-69
2022/07/15 05:22:44;;;;;;;10.32;2.70;;;20.30;99.90;;;;;;2082729;28;20108;-69